Time,TemperatureF,DewpointF,PressureIn,WindDirection,WindDirectionDegrees,WindSpeedMPH,WindSpeedGustMPH,Humidity,HourlyPrecipIn,Conditions,Clouds,dailyrainin,SoftwareType,DateUTC
2013-04-29 00:02:00,39.5,24.7,29.79,North,11,0.0,0.0,55,0.00,,---,0.00,VWS V13.01,2013-04-29 06:02:00,
2013-04-29 00:07:00,39.3,24.5,29.79,North,11,0.0,0.0,55,0.00,,---,0.00,VWS V13.01,2013-04-29 06:07:00,
2013-04-29 00:12:00,39.3,24.5,29.79,North,11,0.0,0.0,55,0.00,,---,0.00,VWS V13.01,2013-04-29 06:12:00,
2013-04-29 00:17:00,39.3,24.5,29.73,North,11,0.0,0.0,55,0.00,,---,0.00,VWS V13.01,2013-04-29 06:17:00,
2013-04-29 00:22:00,39.5,24.2,29.73,North,11,0.0,0.0,54,0.00,,---,0.00,VWS V13.01,2013-04-29 06:22:00,
2013-04-29 00:27:00,39.5,24.2,29.73,North,11,0.0,0.0,54,0.00,,---,0.00,VWS V13.01,2013-04-29 06:27:00,
2013-04-29 00:32:00,39.5,24.2,29.72,North,11,0.0,0.0,54,0.00,,---,0.00,VWS V13.01,2013-04-29 06:32:00,
2013-04-29 00:38:00,39.3,24.5,29.72,North,11,0.0,0.0,55,0.00,,---,0.00,VWS V13.01,2013-04-29 06:38:00,
2013-04-29 00:43:00,39.2,24.4,29.72,North,11,0.0,0.0,55,0.00,,---,0.00,VWS V13.01,2013-04-29 06:43:00,
2013-04-29 00:48:00,39.1,24.3,29.71,North,11,0.0,0.0,55,0.00,,---,0.00,VWS V13.01,2013-04-29 06:48:00,
2013-04-29 00:53:00,39.1,24.3,29.71,North,11,0.0,0.0,55,0.00,,---,0.00,VWS V13.01,2013-04-29 06:53:00,
2013-04-29 00:58:00,38.9,24.1,29.71,North,11,0.0,0.0,55,0.00,,---,0.00,VWS V13.01,2013-04-29 06:58:00,
2013-04-29 01:03:00,38.8,24.0,29.71,North,11,0.0,0.0,55,0.00,,---,0.00,VWS V13.01,2013-04-29 07:03:00,
2013-04-29 01:08:00,38.3,24.0,29.71,North,11,0.0,0.0,56,0.00,,---,0.00,VWS V13.01,2013-04-29 07:08:00,
2013-04-29 01:13:00,38.2,23.9,29.71,North,11,0.0,0.0,56,0.00,,---,0.00,VWS V13.01,2013-04-29 07:13:00,
2013-04-29 01:18:00,38.0,24.1,29.71,North,11,0.0,0.0,57,0.00,,---,0.00,VWS V13.01,2013-04-29 07:18:00,
2013-04-29 01:23:00,37.9,24.0,29.71,North,11,0.0,0.0,57,0.00,,---,0.00,VWS V13.01,2013-04-29 07:23:00,
2013-04-29 01:29:00,37.8,24.0,29.71,North,11,0.0,0.0,57,0.00,,---,0.00,VWS V13.01,2013-04-29 07:29:00,
2013-04-29 01:34:00,37.9,24.0,29.70,North,11,0.0,0.0,57,0.00,,---,0.00,VWS V13.01,2013-04-29 07:34:00,
2013-04-29 01:39:00,37.8,23.5,29.70,North,11,0.0,0.0,56,0.00,,---,0.00,VWS V13.01,2013-04-29 07:39:00,
2013-04-29 01:44:00,37.8,24.0,29.70,East,98,0.0,1.0,57,0.00,,---,0.00,VWS V13.01,2013-04-29 07:44:00,
2013-04-29 01:49:00,37.8,23.5,29.69,East,98,0.0,0.0,56,0.00,,---,0.00,VWS V13.01,2013-04-29 07:49:00,
2013-04-29 01:54:00,37.9,23.2,29.69,East,98,0.0,0.0,55,0.00,,---,0.00,VWS V13.01,2013-04-29 07:54:00,
2013-04-29 01:59:00,38.0,22.4,29.69,East,98,0.0,0.0,53,0.00,,---,0.00,VWS V13.01,2013-04-29 07:59:00,
2013-04-29 02:04:00,38.5,23.3,29.68,East,98,0.0,0.0,54,0.00,,---,0.00,VWS V13.01,2013-04-29 08:04:00,
2013-04-29 02:09:00,39.1,23.0,29.68,East,95,0.0,1.0,52,0.00,,---,0.00,VWS V13.01,2013-04-29 08:09:00,
2013-04-29 02:14:00,39.5,23.4,29.68,East,95,0.0,0.0,52,0.00,,---,0.00,VWS V13.01,2013-04-29 08:14:00,
2013-04-29 02:19:00,39.8,22.7,29.68,East,95,0.0,0.0,50,0.00,,---,0.00,VWS V13.01,2013-04-29 08:19:00,
2013-04-29 02:25:00,40.1,20.5,29.68,ENE,65,0.0,3.0,45,0.00,,---,0.00,VWS V13.01,2013-04-29 08:25:00,
2013-04-29 02:30:00,40.6,22.0,29.68,ENE,65,0.0,0.0,47,0.00,,---,0.00,VWS V13.01,2013-04-29 08:30:00,
2013-04-29 02:35:00,41.1,21.9,29.67,ENE,65,0.0,0.0,46,0.00,,---,0.00,VWS V13.01,2013-04-29 08:35:00,
2013-04-29 02:40:00,41.2,22.5,29.67,ENE,65,0.0,0.0,47,0.00,,---,0.00,VWS V13.01,2013-04-29 08:40:00,
2013-04-29 02:45:00,41.2,22.5,29.67,ENE,65,0.0,0.0,47,0.00,,---,0.00,VWS V13.01,2013-04-29 08:45:00,
2013-04-29 02:50:00,40.9,22.2,29.66,ENE,65,0.0,0.0,47,0.00,,---,0.00,VWS V13.01,2013-04-29 08:50:00,
2013-04-29 02:55:00,40.6,22.5,29.66,ENE,65,0.0,0.0,48,0.00,,---,0.00,VWS V13.01,2013-04-29 08:55:00,
2013-04-29 03:00:00,40.3,21.2,29.66,ENE,65,0.0,0.0,46,0.00,,---,0.00,VWS V13.01,2013-04-29 09:00:00,
2013-04-29 03:06:00,40.3,21.2,29.66,ENE,65,0.0,2.0,46,0.00,,---,0.00,VWS V13.01,2013-04-29 09:06:00,
2013-04-29 03:11:00,40.2,21.6,29.66,ENE,66,0.0,1.0,47,0.00,,---,0.00,VWS V13.01,2013-04-29 09:11:00,
2013-04-29 03:17:00,40.2,21.1,29.62,ENE,66,0.0,0.0,46,0.00,,---,0.00,VWS V13.01,2013-04-29 09:17:00,
2013-04-29 03:22:00,40.3,21.2,29.62,ENE,66,0.0,0.0,46,0.00,,---,0.00,VWS V13.01,2013-04-29 09:22:00,
2013-04-29 03:28:00,40.3,21.7,29.62,ENE,66,0.0,0.0,47,0.00,,---,0.00,VWS V13.01,2013-04-29 09:28:00,
2013-04-29 03:33:00,40.2,21.6,29.61,ENE,66,0.0,0.0,47,0.00,,---,0.00,VWS V13.01,2013-04-29 09:33:00,
2013-04-29 03:38:00,40.1,19.4,29.61,WNW,285,3.0,3.0,43,0.00,,---,0.00,VWS V13.01,2013-04-29 09:38:00,
2013-04-29 03:43:00,40.2,21.1,29.61,NW,325,0.0,0.0,46,0.00,,---,0.00,VWS V13.01,2013-04-29 09:43:00,
2013-04-29 03:48:00,40.1,21.0,29.60,NW,324,0.0,0.0,46,0.00,,---,0.00,VWS V13.01,2013-04-29 09:48:00,
2013-04-29 03:53:00,39.9,21.3,29.60,NW,324,0.0,0.0,47,0.00,,---,0.00,VWS V13.01,2013-04-29 09:53:00,
2013-04-29 03:58:00,39.6,21.0,29.60,NW,325,0.0,0.0,47,0.00,,---,0.00,VWS V13.01,2013-04-29 09:58:00,
2013-04-29 04:03:00,39.6,20.0,29.60,NW,307,0.0,1.0,45,0.00,,---,0.00,VWS V13.01,2013-04-29 10:03:00,
2013-04-29 04:08:00,39.9,20.3,29.60,East,98,0.0,2.0,45,0.00,,---,0.00,VWS V13.01,2013-04-29 10:08:00,
2013-04-29 04:13:00,40.2,20.6,29.60,NNE,32,3.0,3.0,45,0.00,,---,0.00,VWS V13.01,2013-04-29 10:13:00,
2013-04-29 04:18:00,40.9,17.9,29.60,North,5,0.0,5.0,39,0.00,,---,0.00,VWS V13.01,2013-04-29 10:18:00,
2013-04-29 04:24:00,41.8,19.8,29.60,North,5,0.0,1.0,41,0.00,,---,0.00,VWS V13.01,2013-04-29 10:24:00,
2013-04-29 04:29:00,42.2,18.4,29.60,North,355,0.0,7.0,38,0.00,,---,0.00,VWS V13.01,2013-04-29 10:29:00,
2013-04-29 04:34:00,42.9,17.1,29.59,WSW,252,0.0,3.0,35,0.00,,---,0.00,VWS V13.01,2013-04-29 10:34:00,
2013-04-29 04:39:00,43.6,19.7,29.59,WNW,298,0.0,2.0,38,0.00,,---,0.00,VWS V13.01,2013-04-29 10:39:00,
2013-04-29 04:44:00,43.8,21.1,29.59,WNW,297,0.0,0.0,40,0.00,,---,0.00,VWS V13.01,2013-04-29 10:44:00,
2013-04-29 04:49:00,43.8,20.5,29.57,NE,55,0.0,2.0,39,0.00,,---,0.00,VWS V13.01,2013-04-29 10:49:00,
2013-04-29 04:54:00,43.8,20.5,29.57,ENE,65,0.0,4.0,39,0.00,,---,0.00,VWS V13.01,2013-04-29 10:54:00,
2013-04-29 04:59:00,44.1,18.9,29.57,NE,36,0.0,10.0,36,0.00,,---,0.00,VWS V13.01,2013-04-29 10:59:00,
2013-04-29 05:04:00,44.5,18.6,29.56,ENE,74,1.0,5.0,35,0.00,,---,0.00,VWS V13.01,2013-04-29 11:04:00,
2013-04-29 05:09:00,44.8,18.2,29.56,ESE,105,0.0,1.0,34,0.00,,---,0.00,VWS V13.01,2013-04-29 11:09:00,
2013-04-29 05:15:00,44.9,18.2,29.56,North,5,0.0,2.0,34,0.00,,---,0.00,VWS V13.01,2013-04-29 11:15:00,
2013-04-29 05:20:00,45.1,19.8,29.59,NNW,344,0.0,6.0,36,0.00,,---,0.00,VWS V13.01,2013-04-29 11:20:00,
2013-04-29 05:25:00,45.1,19.1,29.59,NNE,23,0.0,2.0,35,0.00,,---,0.00,VWS V13.01,2013-04-29 11:25:00,
2013-04-29 05:30:00,45.1,19.8,29.59,NNW,338,0.0,6.0,36,0.00,,---,0.00,VWS V13.01,2013-04-29 11:30:00,
2013-04-29 05:35:00,45.1,19.1,29.59,NNE,16,0.0,2.0,35,0.00,,---,0.00,VWS V13.01,2013-04-29 11:35:00,
2013-04-29 05:40:00,44.9,20.2,29.59,WNW,285,0.0,2.0,37,0.00,,---,0.00,VWS V13.01,2013-04-29 11:40:00,
2013-04-29 05:45:00,44.8,18.8,29.59,WNW,292,1.0,1.0,35,0.00,,---,0.00,VWS V13.01,2013-04-29 11:45:00,
2013-04-29 05:50:00,44.9,18.9,29.59,NW,326,0.0,4.0,35,0.00,,---,0.00,VWS V13.01,2013-04-29 11:50:00,
2013-04-29 05:55:00,44.9,20.2,29.59,NNW,332,0.0,0.0,37,0.00,,---,0.00,VWS V13.01,2013-04-29 11:55:00,
2013-04-29 06:00:00,44.8,22.0,29.59,NNW,332,0.0,0.0,40,0.00,,---,0.00,VWS V13.01,2013-04-29 12:00:00,
2013-04-29 06:06:00,44.6,21.8,29.59,NNW,332,0.0,1.0,40,0.00,,---,0.00,VWS V13.01,2013-04-29 12:06:00,
2013-04-29 06:11:00,44.5,19.9,29.59,NE,36,0.0,3.0,37,0.00,,---,0.00,VWS V13.01,2013-04-29 12:11:00,
2013-04-29 06:16:00,44.6,20.0,29.61,WNW,302,0.0,1.0,37,0.00,,---,0.00,VWS V13.01,2013-04-29 12:16:00,
2013-04-29 06:21:00,44.8,20.8,29.61,North,350,6.0,9.0,38,0.00,,---,0.00,VWS V13.01,2013-04-29 12:21:00,
2013-04-29 06:26:00,45.1,22.2,29.61,SSE,150,0.0,4.0,40,0.00,,---,0.00,VWS V13.01,2013-04-29 12:26:00,
2013-04-29 06:31:00,45.2,22.9,29.59,ENE,63,0.0,1.0,41,0.00,,---,0.00,VWS V13.01,2013-04-29 12:31:00,
2013-04-29 06:36:00,45.2,24.0,29.59,ENE,63,0.0,0.0,43,0.00,,---,0.00,VWS V13.01,2013-04-29 12:36:00,
2013-04-29 06:41:00,45.1,25.0,29.59,ENE,63,0.0,0.0,45,0.00,,---,0.00,VWS V13.01,2013-04-29 12:41:00,
2013-04-29 06:46:00,44.8,25.3,29.59,ENE,63,0.0,0.0,46,0.00,,---,0.00,VWS V13.01,2013-04-29 12:46:00,
2013-04-29 06:51:00,44.5,25.5,29.59,ENE,63,0.0,0.0,47,0.00,,---,0.00,VWS V13.01,2013-04-29 12:51:00,
2013-04-29 06:56:00,44.3,25.9,29.59,ENE,63,0.0,0.0,48,0.00,,---,0.00,VWS V13.01,2013-04-29 12:56:00,
2013-04-29 07:02:00,44.1,25.7,29.58,ENE,63,0.0,0.0,48,0.00,,---,0.00,VWS V13.01,2013-04-29 13:02:00,
2013-04-29 07:07:00,43.9,24.5,29.58,ENE,63,0.0,0.0,46,0.00,,---,0.00,VWS V13.01,2013-04-29 13:07:00,
2013-04-29 07:12:00,43.9,26.5,29.58,ENE,63,0.0,0.0,50,0.00,,---,0.00,VWS V13.01,2013-04-29 13:12:00,
2013-04-29 07:17:00,43.9,26.0,29.60,ENE,63,0.0,0.0,49,0.00,,---,0.00,VWS V13.01,2013-04-29 13:17:00,
2013-04-29 07:22:00,44.1,25.2,29.60,SW,236,2.0,5.0,47,0.00,,---,0.00,VWS V13.01,2013-04-29 13:22:00,
2013-04-29 07:27:00,44.1,26.7,29.60,WSW,248,0.0,3.0,50,0.00,,---,0.00,VWS V13.01,2013-04-29 13:27:00,
2013-04-29 07:32:00,43.9,27.0,29.61,North,5,0.0,0.0,51,0.00,,---,0.00,VWS V13.01,2013-04-29 13:32:00,
2013-04-29 07:37:00,43.9,27.4,29.61,North,5,0.0,0.0,52,0.00,,---,0.00,VWS V13.01,2013-04-29 13:37:00,
2013-04-29 07:43:00,43.8,28.7,29.61,North,5,0.0,0.0,55,0.00,,---,0.00,VWS V13.01,2013-04-29 13:43:00,
2013-04-29 07:48:00,43.8,28.7,29.59,North,5,0.0,0.0,55,0.00,,---,0.00,VWS V13.01,2013-04-29 13:48:00,
2013-04-29 07:53:00,43.8,29.1,29.59,NNW,336,0.0,0.0,56,0.00,,---,0.00,VWS V13.01,2013-04-29 13:53:00,
2013-04-29 07:58:00,43.8,28.7,29.59,North,349,0.0,0.0,55,0.00,,---,0.00,VWS V13.01,2013-04-29 13:58:00,
2013-04-29 08:03:00,43.8,29.1,29.60,North,349,0.0,0.0,56,0.00,,---,0.00,VWS V13.01,2013-04-29 14:03:00,
2013-04-29 08:08:00,43.8,29.6,29.60,East,94,1.0,5.0,57,0.00,,---,0.00,VWS V13.01,2013-04-29 14:08:00,
2013-04-29 08:13:00,44.2,30.0,29.60,NE,37,0.0,0.0,57,0.00,,---,0.00,VWS V13.01,2013-04-29 14:13:00,
2013-04-29 08:18:00,44.6,30.3,29.61,NNW,333,0.0,3.0,57,0.00,,---,0.00,VWS V13.01,2013-04-29 14:18:00,
2013-04-29 08:23:00,45.2,30.9,29.61,NE,42,0.0,2.0,57,0.00,,---,0.00,VWS V13.01,2013-04-29 14:23:00,
2013-04-29 08:28:00,45.7,31.4,29.61,NNW,331,1.0,2.0,57,0.00,,---,0.00,VWS V13.01,2013-04-29 14:28:00,
2013-04-29 08:34:00,46.1,30.4,29.58,NW,320,0.0,11.0,54,0.00,,---,0.00,VWS V13.01,2013-04-29 14:34:00,
2013-04-29 08:39:00,46.4,31.6,29.58,NE,42,0.0,1.0,56,0.00,,---,0.00,VWS V13.01,2013-04-29 14:39:00,
2013-04-29 08:44:00,46.7,31.4,29.58,SE,135,0.0,6.0,55,0.00,,---,0.00,VWS V13.01,2013-04-29 14:44:00,
2013-04-29 08:49:00,47.0,31.7,29.56,North,355,1.0,2.0,55,0.00,,---,0.00,VWS V13.01,2013-04-29 14:49:00,
2013-04-29 08:54:00,47.3,32.4,29.56,ENE,76,0.0,7.0,56,0.00,,---,0.00,VWS V13.01,2013-04-29 14:54:00,
2013-04-29 08:59:00,47.6,32.2,29.56,NNE,27,6.0,7.0,55,0.00,,---,0.00,VWS V13.01,2013-04-29 14:59:00,
2013-04-29 09:04:00,47.9,33.0,29.55,NNE,32,1.0,6.0,56,0.00,,---,0.00,VWS V13.01,2013-04-29 15:04:00,
2013-04-29 09:09:00,48.0,33.1,29.55,NNE,32,1.0,6.0,56,0.00,,---,0.00,VWS V13.01,2013-04-29 15:09:00,
2013-04-29 09:14:00,48.2,32.3,29.55,ESE,111,5.0,11.0,54,0.00,,---,0.00,VWS V13.01,2013-04-29 15:14:00,
2013-04-29 09:19:00,48.3,32.4,29.57,ENE,76,0.0,6.0,54,0.00,,---,0.00,VWS V13.01,2013-04-29 15:19:00,
2013-04-29 09:25:00,48.8,32.0,29.57,NNE,18,2.0,4.0,52,0.00,,---,0.00,VWS V13.01,2013-04-29 15:25:00,
2013-04-29 09:30:00,49.2,31.9,29.57,ESE,103,1.0,11.0,51,0.00,,---,0.00,VWS V13.01,2013-04-29 15:30:00,
2013-04-29 09:35:00,49.5,32.1,29.55,NNE,15,0.0,12.0,51,0.00,,---,0.00,VWS V13.01,2013-04-29 15:35:00,
2013-04-29 09:40:00,49.9,32.0,29.55,ENE,67,10.0,12.0,50,0.00,,---,0.00,VWS V13.01,2013-04-29 15:40:00,
2013-04-29 09:45:00,50.1,32.7,29.55,North,5,0.0,5.0,51,0.00,,---,0.00,VWS V13.01,2013-04-29 15:45:00,
2013-04-29 09:50:00,50.4,32.0,29.53,SW,222,0.0,6.0,49,0.00,,---,0.00,VWS V13.01,2013-04-29 15:50:00,
2013-04-29 09:55:00,50.7,31.7,29.53,ESE,115,1.0,5.0,48,0.00,,---,0.00,VWS V13.01,2013-04-29 15:55:00,
2013-04-29 10:00:00,51.1,32.1,29.53,NE,38,0.0,9.0,48,0.00,,---,0.00,VWS V13.01,2013-04-29 16:00:00,
2013-04-29 10:05:00,51.7,33.7,29.53,North,5,2.0,10.0,50,0.00,,---,0.00,VWS V13.01,2013-04-29 16:05:00,
2013-04-29 10:10:00,51.7,33.7,29.53,ESE,105,0.0,4.0,50,0.00,,---,0.00,VWS V13.01,2013-04-29 16:10:00,
2013-04-29 10:16:00,52.2,32.6,29.54,NNE,17,4.0,5.0,47,0.00,,---,0.00,VWS V13.01,2013-04-29 16:16:00,
2013-04-29 10:21:00,52.3,34.7,29.54,NE,38,3.0,5.0,51,0.00,,---,0.00,VWS V13.01,2013-04-29 16:21:00,
2013-04-29 10:26:00,51.7,34.7,29.54,WNW,288,0.0,9.0,52,0.00,,---,0.00,VWS V13.01,2013-04-29 16:26:00,
2013-04-29 10:31:00,50.1,37.2,29.54,East,101,0.0,5.0,61,0.01,,---,0.01,VWS V13.01,2013-04-29 16:31:00,
2013-04-29 10:36:00,48.8,38.7,29.54,ENE,65,0.0,3.0,68,0.01,,---,0.01,VWS V13.01,2013-04-29 16:36:00,
2013-04-29 10:41:00,47.9,35.1,29.54,NE,36,0.0,4.0,61,0.01,,---,0.01,VWS V13.01,2013-04-29 16:41:00,
2013-04-29 10:46:00,47.4,38.1,29.54,ENE,74,0.0,3.0,70,0.02,,---,0.02,VWS V13.01,2013-04-29 16:46:00,
2013-04-29 10:51:00,47.0,36.6,29.54,WSW,253,0.0,2.0,67,0.02,,---,0.02,VWS V13.01,2013-04-29 16:51:00,
2013-04-29 10:56:00,46.5,38.3,29.54,ENE,63,0.0,5.0,73,0.02,,---,0.02,VWS V13.01,2013-04-29 16:56:00,
2013-04-29 11:01:00,46.1,38.3,29.56,ENE,63,0.0,0.0,74,0.03,,---,0.03,VWS V13.01,2013-04-29 17:01:00,
2013-04-29 11:06:00,45.4,38.0,29.56,SSW,198,0.0,4.0,75,0.03,,---,0.03,VWS V13.01,2013-04-29 17:06:00,
2013-04-29 11:11:00,44.6,35.8,29.56,SW,219,0.0,9.0,71,0.05,,---,0.05,VWS V13.01,2013-04-29 17:11:00,
2013-04-29 11:16:00,44.1,36.0,29.58,NNW,333,0.0,4.0,73,0.05,,---,0.05,VWS V13.01,2013-04-29 17:16:00,
2013-04-29 11:21:00,43.5,37.1,29.58,NNE,32,2.0,12.0,78,0.05,,---,0.05,VWS V13.01,2013-04-29 17:21:00,
2013-04-29 11:26:00,42.6,35.6,29.58,NNE,27,2.0,13.0,76,0.06,,---,0.06,VWS V13.01,2013-04-29 17:26:00,
2013-04-29 11:31:00,41.9,35.9,29.61,West,279,0.0,6.0,79,0.06,,---,0.06,VWS V13.01,2013-04-29 17:31:00,
2013-04-29 11:36:00,41.8,37.3,29.61,NNE,18,2.0,4.0,84,0.05,,---,0.06,VWS V13.01,2013-04-29 17:36:00,
2013-04-29 11:42:00,42.1,37.6,29.61,North,355,0.0,2.0,84,0.05,,---,0.06,VWS V13.01,2013-04-29 17:42:00,
2013-04-29 11:47:00,42.2,36.5,29.60,West,274,7.0,7.0,80,0.04,,---,0.06,VWS V13.01,2013-04-29 17:47:00,
2013-04-29 11:52:00,42.6,37.5,29.60,NNE,17,0.0,2.0,82,0.04,,---,0.06,VWS V13.01,2013-04-29 17:52:00,
2013-04-29 11:57:00,43.1,37.7,29.60,NNE,30,11.0,13.0,81,0.04,,---,0.06,VWS V13.01,2013-04-29 17:57:00,
2013-04-29 12:02:00,43.5,36.5,29.58,NNE,17,1.0,3.0,76,0.04,,---,0.06,VWS V13.01,2013-04-29 18:02:00,
2013-04-29 12:07:00,44.1,39.0,29.58,NNE,12,2.0,4.0,82,0.03,,---,0.06,VWS V13.01,2013-04-29 18:07:00,
2013-04-29 12:12:00,44.3,37.9,29.58,NNW,333,0.0,1.0,78,0.03,,---,0.06,VWS V13.01,2013-04-29 18:12:00,
2013-04-29 12:17:00,44.6,38.2,29.58,NNW,347,0.0,3.0,78,0.01,,---,0.06,VWS V13.01,2013-04-29 18:17:00,
2013-04-29 12:23:00,44.8,36.7,29.58,WNW,286,3.0,4.0,73,0.01,,---,0.06,VWS V13.01,2013-04-29 18:23:00,
2013-04-29 12:28:00,45.2,38.8,29.58,NE,53,0.0,1.0,78,0.00,,---,0.06,VWS V13.01,2013-04-29 18:28:00,
2013-04-29 12:33:00,46.2,38.4,29.57,NNE,19,0.0,3.0,74,0.00,,---,0.06,VWS V13.01,2013-04-29 18:33:00,
2013-04-29 12:38:00,47.3,38.4,29.57,ENE,73,0.0,2.0,71,0.00,,---,0.06,VWS V13.01,2013-04-29 18:38:00,
2013-04-29 12:43:00,48.2,34.1,29.57,WNW,289,3.0,7.0,58,0.00,,---,0.06,VWS V13.01,2013-04-29 18:43:00,
2013-04-29 12:48:00,49.4,38.9,29.55,NE,50,6.0,6.0,67,0.00,,---,0.06,VWS V13.01,2013-04-29 18:48:00,
2013-04-29 12:53:00,50.4,35.8,29.55,North,9,3.0,9.0,57,0.00,,---,0.06,VWS V13.01,2013-04-29 18:53:00,
2013-04-29 12:58:00,50.1,35.5,29.55,NE,35,0.0,7.0,57,0.00,,---,0.06,VWS V13.01,2013-04-29 18:58:00,
2013-04-29 13:03:00,49.9,36.2,29.55,ENE,59,0.0,2.0,59,0.00,,---,0.06,VWS V13.01,2013-04-29 19:03:00,
2013-04-29 13:08:00,50.2,34.7,29.55,NNE,12,1.0,3.0,55,0.00,,---,0.06,VWS V13.01,2013-04-29 19:08:00,
2013-04-29 13:14:00,51.0,33.0,29.55,SSE,158,3.0,6.0,50,0.00,,---,0.06,VWS V13.01,2013-04-29 19:14:00,
2013-04-29 13:19:00,51.9,33.4,29.54,NW,310,1.0,11.0,49,0.00,,---,0.06,VWS V13.01,2013-04-29 19:19:00,
2013-04-29 13:24:00,52.9,34.3,29.54,NE,42,2.0,8.0,49,0.00,,---,0.06,VWS V13.01,2013-04-29 19:24:00,
2013-04-29 13:29:00,53.9,31.4,29.54,North,351,4.0,6.0,42,0.00,,---,0.06,VWS V13.01,2013-04-29 19:29:00,
2013-04-29 13:34:00,54.7,32.7,29.52,NW,321,4.0,5.0,43,0.00,,---,0.06,VWS V13.01,2013-04-29 19:34:00,
2013-04-29 13:39:00,55.7,32.4,29.52,WSW,242,0.0,5.0,41,0.00,,---,0.06,VWS V13.01,2013-04-29 19:39:00,
2013-04-29 13:45:00,56.6,30.6,29.52,ENE,74,0.0,11.0,37,0.00,,---,0.06,VWS V13.01,2013-04-29 19:45:00,
2013-04-29 13:50:00,57.2,26.1,29.50,North,9,7.0,14.0,30,0.00,,---,0.06,VWS V13.01,2013-04-29 19:50:00,
2013-04-29 13:55:00,58.1,22.5,29.50,North,355,6.0,12.0,25,0.00,,---,0.06,VWS V13.01,2013-04-29 19:55:00,
2013-04-29 14:00:00,58.7,24.8,29.50,East,101,1.0,10.0,27,0.00,,---,0.06,VWS V13.01,2013-04-29 20:00:00,
2013-04-29 14:05:00,58.7,24.8,29.50,NNW,333,4.0,5.0,27,0.00,,---,0.06,VWS V13.01,2013-04-29 20:05:00,
2013-04-29 14:10:00,58.4,19.7,29.50,WNW,300,8.0,11.0,22,0.00,,---,0.06,VWS V13.01,2013-04-29 20:10:00,
2013-04-29 14:15:00,59.0,22.3,29.50,NNW,335,4.0,6.0,24,0.00,,---,0.06,VWS V13.01,2013-04-29 20:15:00,
2013-04-29 14:20:00,59.9,22.0,29.49,North,10,4.0,13.0,23,0.00,,---,0.06,VWS V13.01,2013-04-29 20:20:00,
2013-04-29 14:25:00,59.8,23.0,29.49,North,11,3.0,14.0,24,0.00,,---,0.06,VWS V13.01,2013-04-29 20:25:00,
2013-04-29 14:31:00,58.9,22.2,29.48,SW,224,2.0,9.0,24,0.00,,---,0.06,VWS V13.01,2013-04-29 20:31:00,
2013-04-29 14:36:00,58.0,21.4,29.48,SW,215,6.0,13.0,24,0.00,,---,0.06,VWS V13.01,2013-04-29 20:36:00,
2013-04-29 14:41:00,57.3,17.7,29.48,NE,36,7.0,13.0,21,0.00,,---,0.06,VWS V13.01,2013-04-29 20:41:00,
2013-04-29 14:46:00,56.9,17.4,29.50,ENE,66,2.0,23.0,21,0.00,,---,0.06,VWS V13.01,2013-04-29 20:46:00,
2013-04-29 14:51:00,56.5,19.2,29.50,ENE,59,1.0,12.0,23,0.00,,---,0.06,VWS V13.01,2013-04-29 20:51:00,
2013-04-29 14:56:00,56.9,18.5,29.50,NE,36,0.0,14.0,22,0.00,,---,0.06,VWS V13.01,2013-04-29 20:56:00,
2013-04-29 15:01:00,56.0,17.7,29.50,East,82,5.0,18.0,22,0.00,,---,0.06,VWS V13.01,2013-04-29 21:01:00,
2013-04-29 15:06:00,54.7,16.6,29.50,WSW,254,1.0,14.0,22,0.00,,---,0.06,VWS V13.01,2013-04-29 21:06:00,
2013-04-29 15:11:00,54.1,17.1,29.50,NNE,17,4.0,15.0,23,0.00,,---,0.06,VWS V13.01,2013-04-29 21:11:00,
2013-04-29 15:16:00,54.7,18.6,29.52,NW,319,6.0,12.0,24,0.00,,---,0.06,VWS V13.01,2013-04-29 21:16:00,
2013-04-29 15:21:00,54.8,19.7,29.52,North,11,0.0,16.0,25,0.00,,---,0.06,VWS V13.01,2013-04-29 21:21:00,
2013-04-29 15:26:00,55.0,18.9,29.52,SSW,207,5.0,10.0,24,0.00,,---,0.06,VWS V13.01,2013-04-29 21:26:00,
2013-04-29 15:31:00,55.0,18.9,29.53,NW,313,11.0,18.0,24,0.00,,---,0.06,VWS V13.01,2013-04-29 21:31:00,
2013-04-29 15:36:00,55.0,19.8,29.53,North,351,4.0,17.0,25,0.00,,---,0.06,VWS V13.01,2013-04-29 21:36:00,
2013-04-29 15:42:00,54.8,18.7,29.53,SSW,198,13.0,20.0,24,0.00,,---,0.06,VWS V13.01,2013-04-29 21:42:00,
2013-04-29 15:47:00,54.1,20.0,29.53,NNE,21,2.0,3.0,26,0.00,,---,0.06,VWS V13.01,2013-04-29 21:47:00,
2013-04-29 15:53:00,54.4,22.8,29.53,ENE,75,1.0,6.0,29,0.00,,---,0.06,VWS V13.01,2013-04-29 21:53:00,
2013-04-29 15:58:00,55.3,20.1,29.53,North,355,0.0,10.0,25,0.00,,---,0.06,VWS V13.01,2013-04-29 21:58:00,
2013-04-29 16:03:00,55.9,19.6,29.54,SSE,164,1.0,10.0,24,0.00,,---,0.06,VWS V13.01,2013-04-29 22:03:00,
2013-04-29 16:08:00,55.4,20.2,29.54,NNE,23,0.0,1.0,25,0.00,,---,0.06,VWS V13.01,2013-04-29 22:08:00,
2013-04-29 16:13:00,55.7,20.4,29.54,NW,323,1.0,13.0,25,0.00,,---,0.06,VWS V13.01,2013-04-29 22:13:00,
2013-04-29 16:19:00,55.9,20.6,29.52,SSW,193,2.0,12.0,25,0.00,,---,0.06,VWS V13.01,2013-04-29 22:19:00,
2013-04-29 16:25:00,56.3,21.9,29.52,NNW,328,0.0,12.0,26,0.00,,---,0.06,VWS V13.01,2013-04-29 22:25:00,
2013-04-29 16:31:00,55.3,22.8,29.53,NNE,12,5.0,16.0,28,0.00,,---,0.06,VWS V13.01,2013-04-29 22:31:00,
2013-04-29 16:36:00,55.3,20.1,29.53,WSW,248,10.0,10.0,25,0.00,,---,0.06,VWS V13.01,2013-04-29 22:36:00,
2013-04-29 16:41:00,53.1,20.9,29.53,ENE,66,11.0,15.0,28,0.00,,---,0.06,VWS V13.01,2013-04-29 22:41:00,
2013-04-29 16:46:00,50.8,22.8,29.60,ENE,72,3.0,16.0,33,0.00,,---,0.06,VWS V13.01,2013-04-29 22:46:00,
2013-04-29 16:52:00,48.5,24.7,29.60,NE,38,14.0,18.0,39,0.00,,---,0.06,VWS V13.01,2013-04-29 22:52:00,
2013-04-29 16:57:00,46.1,24.3,29.60,North,349,10.0,10.0,42,0.00,,---,0.06,VWS V13.01,2013-04-29 22:57:00,
2013-04-29 17:02:00,44.5,22.9,29.63,ESE,121,0.0,2.0,42,0.00,,---,0.06,VWS V13.01,2013-04-29 23:02:00,
2013-04-29 17:08:00,43.6,23.1,29.63,ENE,58,0.0,2.0,44,0.00,,---,0.06,VWS V13.01,2013-04-29 23:08:00,
2013-04-29 17:13:00,44.3,22.1,29.63,NE,37,3.0,6.0,41,0.00,,---,0.06,VWS V13.01,2013-04-29 23:13:00,
2013-04-29 17:18:00,45.1,19.8,29.60,West,269,4.0,5.0,36,0.00,,---,0.06,VWS V13.01,2013-04-29 23:18:00,
2013-04-29 17:23:00,45.8,16.1,29.60,SSE,165,4.0,11.0,30,0.00,,---,0.06,VWS V13.01,2013-04-29 23:23:00,
2013-04-29 17:29:00,46.7,14.5,29.60,NNE,15,1.0,12.0,27,0.00,,---,0.06,VWS V13.01,2013-04-29 23:29:00,
2013-04-29 17:34:00,47.4,13.4,29.60,North,5,2.0,12.0,25,0.00,,---,0.06,VWS V13.01,2013-04-29 23:34:00,
2013-04-29 17:40:00,47.7,14.5,29.60,SSW,201,5.0,9.0,26,0.00,,---,0.06,VWS V13.01,2013-04-29 23:40:00,
2013-04-29 17:45:00,47.3,14.2,29.60,North,5,0.0,12.0,26,0.00,,---,0.06,VWS V13.01,2013-04-29 23:45:00,
2013-04-29 17:51:00,47.0,13.9,29.61,SE,145,1.0,14.0,26,0.00,,---,0.06,VWS V13.01,2013-04-29 23:51:00,
2013-04-29 17:56:00,46.5,14.3,29.61,NNE,15,5.0,19.0,27,0.00,,---,0.06,VWS V13.01,2013-04-29 23:56:00,
2013-04-29 18:02:00,46.4,14.2,29.63,ENE,61,3.0,17.0,27,0.00,,---,0.06,VWS V13.01,2013-04-30 00:02:00,
2013-04-29 18:07:00,45.5,15.9,29.63,North,355,14.0,18.0,30,0.00,,---,0.06,VWS V13.01,2013-04-30 00:07:00,
2013-04-29 18:12:00,44.5,16.5,29.63,SSW,205,2.0,10.0,32,0.00,,---,0.06,VWS V13.01,2013-04-30 00:12:00,
2013-04-29 18:17:00,43.8,17.3,29.66,NNW,348,3.0,10.0,34,0.00,,---,0.06,VWS V13.01,2013-04-30 00:17:00,
2013-04-29 18:22:00,43.5,15.6,29.66,East,89,0.0,11.0,32,0.00,,---,0.06,VWS V13.01,2013-04-30 00:22:00,
2013-04-29 18:28:00,43.1,16.7,29.66,East,96,3.0,5.0,34,0.00,,---,0.06,VWS V13.01,2013-04-30 00:28:00,
2013-04-29 18:33:00,43.1,16.0,29.68,West,279,1.0,9.0,33,0.00,,---,0.06,VWS V13.01,2013-04-30 00:33:00,
2013-04-29 18:38:00,42.3,16.6,29.68,NE,54,1.0,11.0,35,0.00,,---,0.06,VWS V13.01,2013-04-30 00:38:00,
2013-04-29 18:43:00,42.5,16.8,29.68,NE,40,3.0,9.0,35,0.00,,---,0.06,VWS V13.01,2013-04-30 00:43:00,
2013-04-29 18:48:00,42.6,16.2,29.68,North,350,4.0,11.0,34,0.00,,---,0.06,VWS V13.01,2013-04-30 00:48:00,
2013-04-29 18:53:00,42.6,15.5,29.68,WNW,284,3.0,9.0,33,0.00,,---,0.06,VWS V13.01,2013-04-30 00:53:00,
2013-04-29 18:59:00,42.6,16.2,29.68,ENE,65,0.0,7.0,34,0.00,,---,0.06,VWS V13.01,2013-04-30 00:59:00,
2013-04-29 19:04:00,42.5,15.4,29.69,West,259,2.0,4.0,33,0.00,,---,0.06,VWS V13.01,2013-04-30 01:04:00,
2013-04-29 19:09:00,42.2,14.5,29.69,ENE,63,2.0,5.0,32,0.00,,---,0.06,VWS V13.01,2013-04-30 01:09:00,
2013-04-29 19:14:00,41.9,14.9,29.69,NE,50,0.0,4.0,33,0.00,,---,0.06,VWS V13.01,2013-04-30 01:14:00,
2013-04-29 19:20:00,41.6,16.0,29.70,ENE,57,0.0,5.0,35,0.00,,---,0.06,VWS V13.01,2013-04-30 01:20:00,
2013-04-29 19:25:00,41.2,16.3,29.70,NNW,340,11.0,14.0,36,0.00,,---,0.06,VWS V13.01,2013-04-30 01:25:00,
2013-04-29 19:30:00,40.8,17.2,29.70,NNE,30,0.0,7.0,38,0.00,,---,0.06,VWS V13.01,2013-04-30 01:30:00,
2013-04-29 19:35:00,40.3,17.3,29.71,NE,56,4.0,4.0,39,0.00,,---,0.06,VWS V13.01,2013-04-30 01:35:00,
2013-04-29 19:41:00,40.1,15.9,29.71,NE,38,2.0,12.0,37,0.00,,---,0.06,VWS V13.01,2013-04-30 01:41:00,
2013-04-29 19:46:00,39.8,15.7,29.72,NNE,30,11.0,17.0,37,0.00,,---,0.06,VWS V13.01,2013-04-30 01:46:00,
2013-04-29 19:51:00,39.5,14.8,29.72,SSW,192,0.0,16.0,36,0.00,,---,0.06,VWS V13.01,2013-04-30 01:51:00,
2013-04-29 19:57:00,39.1,14.4,29.72,NNE,24,4.0,12.0,36,0.00,,---,0.06,VWS V13.01,2013-04-30 01:57:00,
2013-04-29 20:02:00,38.8,14.8,29.73,East,82,3.0,6.0,37,0.00,,---,0.06,VWS V13.01,2013-04-30 02:02:00,
2013-04-29 20:07:00,38.5,14.5,29.73,ENE,74,2.0,11.0,37,0.00,,---,0.06,VWS V13.01,2013-04-30 02:07:00,
2013-04-29 20:13:00,38.2,13.6,29.73,SSW,197,9.0,11.0,36,0.00,,---,0.06,VWS V13.01,2013-04-30 02:13:00,
2013-04-29 20:18:00,38.0,14.1,29.72,NW,305,5.0,11.0,37,0.00,,---,0.06,VWS V13.01,2013-04-30 02:18:00,
2013-04-29 20:23:00,37.8,14.5,29.72,North,5,1.0,4.0,38,0.00,,---,0.06,VWS V13.01,2013-04-30 02:23:00,
2013-04-29 20:28:00,37.6,14.9,29.72,East,80,1.0,10.0,39,0.00,,---,0.06,VWS V13.01,2013-04-30 02:28:00,
2013-04-29 20:33:00,37.5,14.8,29.73,ENE,67,0.0,8.0,39,0.00,,---,0.06,VWS V13.01,2013-04-30 02:33:00,
2013-04-29 20:39:00,37.3,15.2,29.73,NE,55,0.0,5.0,40,0.00,,---,0.06,VWS V13.01,2013-04-30 02:39:00,
2013-04-29 20:44:00,37.0,14.4,29.73,North,360,2.0,7.0,39,0.00,,---,0.06,VWS V13.01,2013-04-30 02:44:00,
2013-04-29 20:49:00,36.9,13.1,29.74,West,261,2.0,9.0,37,0.00,,---,0.06,VWS V13.01,2013-04-30 02:49:00,
2013-04-29 20:54:00,36.8,12.4,29.74,ENE,69,2.0,4.0,36,0.00,,---,0.06,VWS V13.01,2013-04-30 02:54:00,
2013-04-29 21:00:00,36.8,13.6,29.74,NNE,30,3.0,4.0,38,0.00,,---,0.06,VWS V13.01,2013-04-30 03:00:00,
2013-04-29 21:05:00,36.6,12.8,29.76,SW,217,5.0,6.0,37,0.00,,---,0.06,VWS V13.01,2013-04-30 03:05:00,
2013-04-29 21:11:00,36.5,12.7,29.76,West,270,0.0,4.0,37,0.00,,---,0.06,VWS V13.01,2013-04-30 03:11:00,
2013-04-29 21:16:00,36.3,13.7,29.76,NW,311,0.0,10.0,39,0.00,,---,0.06,VWS V13.01,2013-04-30 03:16:00,
2013-04-29 21:21:00,36.2,14.2,29.76,North,350,4.0,6.0,40,0.00,,---,0.06,VWS V13.01,2013-04-30 03:21:00,
2013-04-29 21:26:00,36.2,14.2,29.76,ENE,61,0.0,11.0,40,0.00,,---,0.06,VWS V13.01,2013-04-30 03:26:00,
2013-04-29 21:31:00,36.0,14.0,29.76,SE,126,0.0,13.0,40,0.00,,---,0.06,VWS V13.01,2013-04-30 03:31:00,
2013-04-29 21:36:00,35.9,13.9,29.76,SSW,213,8.0,10.0,40,0.00,,---,0.06,VWS V13.01,2013-04-30 03:36:00,
2013-04-29 21:41:00,35.9,14.5,29.76,NE,53,5.0,9.0,41,0.00,,---,0.06,VWS V13.01,2013-04-30 03:41:00,
2013-04-29 21:46:00,35.8,13.9,29.75,West,273,2.0,13.0,40,0.00,,---,0.06,VWS V13.01,2013-04-30 03:46:00,
2013-04-29 21:51:00,35.8,13.9,29.75,SE,136,1.0,10.0,40,0.00,,---,0.06,VWS V13.01,2013-04-30 03:51:00,
2013-04-29 21:56:00,35.8,12.7,29.75,SSE,154,3.0,11.0,38,0.00,,---,0.06,VWS V13.01,2013-04-30 03:56:00,
2013-04-29 22:01:00,35.8,12.7,29.75,NE,56,0.0,5.0,38,0.00,,---,0.06,VWS V13.01,2013-04-30 04:01:00,
2013-04-29 22:02:00,35.8,13.3,29.75,NE,56,2.0,3.0,39,0.00,,---,0.06,VWS V13.01,2013-04-30 04:02:00,
2013-04-29 22:05:00,35.6,13.1,29.75,NE,48,1.0,6.0,39,0.00,,---,0.06,VWS V13.01,2013-04-30 04:05:00,
2013-04-29 22:07:00,35.5,12.4,29.75,NNE,28,0.0,1.0,38,0.00,,---,0.06,VWS V13.01,2013-04-30 04:07:00,
2013-04-29 22:12:00,35.2,12.7,29.75,East,90,1.0,3.0,39,0.00,,---,0.06,VWS V13.01,2013-04-30 04:12:00,
2013-04-29 22:17:00,35.0,10.8,29.80,NNW,332,0.0,4.0,36,0.00,,---,0.06,VWS V13.01,2013-04-30 04:17:00,
2013-04-29 22:22:00,35.2,10.3,29.80,South,171,0.0,2.0,35,0.00,,---,0.06,VWS V13.01,2013-04-30 04:22:00,
2013-04-29 22:27:00,35.2,10.3,29.80,WNW,289,0.0,5.0,35,0.00,,---,0.06,VWS V13.01,2013-04-30 04:27:00,
2013-04-29 22:32:00,35.2,10.3,29.80,NNE,20,2.0,2.0,35,0.00,,---,0.06,VWS V13.01,2013-04-30 04:32:00,
2013-04-29 22:37:00,35.0,10.1,29.80,East,86,1.0,1.0,35,0.00,,---,0.06,VWS V13.01,2013-04-30 04:37:00,
2013-04-29 22:43:00,34.9,10.0,29.80,NNW,345,0.0,3.0,35,0.00,,---,0.06,VWS V13.01,2013-04-30 04:43:00,
2013-04-29 22:48:00,34.9,11.3,29.81,ENE,76,1.0,4.0,37,0.00,,---,0.06,VWS V13.01,2013-04-30 04:48:00,
2013-04-29 22:53:00,34.6,11.6,29.81,NE,34,2.0,3.0,38,0.00,,---,0.06,VWS V13.01,2013-04-30 04:53:00,
2013-04-29 22:58:00,34.4,10.8,29.81,NE,49,3.0,4.0,37,0.00,,---,0.06,VWS V13.01,2013-04-30 04:58:00,
2013-04-29 23:03:00,34.3,11.9,29.81,NNE,23,1.0,4.0,39,0.00,,---,0.06,VWS V13.01,2013-04-30 05:03:00,
2013-04-29 23:08:00,34.0,11.7,29.81,North,355,7.0,10.0,39,0.00,,---,0.06,VWS V13.01,2013-04-30 05:08:00,
2013-04-29 23:13:00,33.8,11.5,29.81,NW,313,0.0,6.0,39,0.00,,---,0.06,VWS V13.01,2013-04-30 05:13:00,
2013-04-29 23:18:00,33.8,11.5,29.83,NNE,18,3.0,7.0,39,0.00,,---,0.06,VWS V13.01,2013-04-30 05:18:00,
2013-04-29 23:23:00,33.8,11.5,29.83,NE,34,3.0,3.0,39,0.00,,---,0.06,VWS V13.01,2013-04-30 05:23:00,
2013-04-29 23:29:00,33.7,11.4,29.83,North,351,0.0,3.0,39,0.00,,---,0.06,VWS V13.01,2013-04-30 05:29:00,
2013-04-29 23:34:00,33.5,11.2,29.83,North,5,4.0,6.0,39,0.00,,---,0.06,VWS V13.01,2013-04-30 05:34:00,
2013-04-29 23:39:00,33.5,10.6,29.83,North,5,2.0,4.0,38,0.00,,---,0.06,VWS V13.01,2013-04-30 05:39:00,
2013-04-29 23:44:00,33.4,10.5,29.83,NE,55,1.0,3.0,38,0.00,,---,0.06,VWS V13.01,2013-04-30 05:44:00,
2013-04-29 23:49:00,33.4,9.9,29.83,West,279,4.0,10.0,37,0.00,,---,0.06,VWS V13.01,2013-04-30 05:49:00,
2013-04-29 23:54:00,33.5,10.6,29.83,North,360,4.0,4.0,38,0.00,,---,0.06,VWS V13.01,2013-04-30 05:54:00,
2013-04-29 23:59:00,33.4,9.3,29.83,ENE,63,1.0,13.0,36,0.00,,---,0.06,VWS V13.01,2013-04-30 05:59:00,